sensor_id;sensor_type;location;lat;lon;timestamp;temperature;humidity
4755;DHT22;2391;47.212;7.542;2022-08-03T00:01:20;26.20;64.80
4755;DHT22;2391;47.212;7.542;2022-08-03T00:03:46;26.10;64.80
4755;DHT22;2391;47.212;7.542;2022-08-03T00:06:12;26.10;64.90
4755;DHT22;2391;47.212;7.542;2022-08-03T00:08:38;26.10;64.90
4755;DHT22;2391;47.212;7.542;2022-08-03T00:11:04;26.00;65.00
4755;DHT22;2391;47.212;7.542;2022-08-03T00:13:32;26.00;65.20
4755;DHT22;2391;47.212;7.542;2022-08-03T00:15:58;25.90;65.40
4755;DHT22;2391;47.212;7.542;2022-08-03T00:18:23;25.80;65.70
4755;DHT22;2391;47.212;7.542;2022-08-03T00:20:49;25.80;65.60
4755;DHT22;2391;47.212;7.542;2022-08-03T00:23:15;25.70;65.70
4755;DHT22;2391;47.212;7.542;2022-08-03T00:25:41;25.70;65.70
4755;DHT22;2391;47.212;7.542;2022-08-03T00:28:08;25.70;66.00
4755;DHT22;2391;47.212;7.542;2022-08-03T00:30:34;25.60;66.20
4755;DHT22;2391;47.212;7.542;2022-08-03T00:33:00;25.50;66.50
4755;DHT22;2391;47.212;7.542;2022-08-03T00:35:27;25.50;66.90
4755;DHT22;2391;47.212;7.542;2022-08-03T00:37:53;25.50;67.00
4755;DHT22;2391;47.212;7.542;2022-08-03T00:40:20;25.40;66.70
4755;DHT22;2391;47.212;7.542;2022-08-03T00:45:20;25.30;67.40
4755;DHT22;2391;47.212;7.542;2022-08-03T00:47:47;25.30;67.10
4755;DHT22;2391;47.212;7.542;2022-08-03T00:50:13;25.30;67.20
4755;DHT22;2391;47.212;7.542;2022-08-03T00:52:40;25.30;67.10
4755;DHT22;2391;47.212;7.542;2022-08-03T00:55:06;25.20;67.10
4755;DHT22;2391;47.212;7.542;2022-08-03T00:57:32;25.20;67.10
4755;DHT22;2391;47.212;7.542;2022-08-03T00:59:58;25.10;67.10
4755;DHT22;2391;47.212;7.542;2022-08-03T01:02:27;25.20;67.30
4755;DHT22;2391;47.212;7.542;2022-08-03T01:04:53;25.10;67.50
4755;DHT22;2391;47.212;7.542;2022-08-03T01:16:01;24.90;68.20
4755;DHT22;2391;47.212;7.542;2022-08-03T01:18:41;24.80;68.30
4755;DHT22;2391;47.212;7.542;2022-08-03T01:21:13;24.70;68.40
4755;DHT22;2391;47.212;7.542;2022-08-03T01:31:43;24.60;68.70
4755;DHT22;2391;47.212;7.542;2022-08-03T01:34:11;24.60;68.90
4755;DHT22;2391;47.212;7.542;2022-08-03T01:36:42;24.60;68.80
4755;DHT22;2391;47.212;7.542;2022-08-03T01:39:08;24.60;68.80
4755;DHT22;2391;47.212;7.542;2022-08-03T01:41:39;24.50;68.90
4755;DHT22;2391;47.212;7.542;2022-08-03T01:44:07;24.50;69.50
4755;DHT22;2391;47.212;7.542;2022-08-03T01:46:35;24.40;69.10
4755;DHT22;2391;47.212;7.542;2022-08-03T01:49:02;24.30;69.40
4755;DHT22;2391;47.212;7.542;2022-08-03T01:51:30;24.30;69.50
4755;DHT22;2391;47.212;7.542;2022-08-03T01:53:57;24.30;69.60
4755;DHT22;2391;47.212;7.542;2022-08-03T01:56:26;24.30;69.60
4755;DHT22;2391;47.212;7.542;2022-08-03T01:58:53;24.30;69.40
4755;DHT22;2391;47.212;7.542;2022-08-03T02:01:21;24.30;69.70
4755;DHT22;2391;47.212;7.542;2022-08-03T02:03:48;24.30;69.70
4755;DHT22;2391;47.212;7.542;2022-08-03T02:06:16;24.20;69.70
4755;DHT22;2391;47.212;7.542;2022-08-03T02:08:44;24.20;70.00
4755;DHT22;2391;47.212;7.542;2022-08-03T02:11:11;24.20;69.90
4755;DHT22;2391;47.212;7.542;2022-08-03T02:13:38;24.20;69.90
4755;DHT22;2391;47.212;7.542;2022-08-03T02:16:04;24.20;70.10
4755;DHT22;2391;47.212;7.542;2022-08-03T02:18:32;24.20;70.40
4755;DHT22;2391;47.212;7.542;2022-08-03T02:21:00;24.20;70.30
4755;DHT22;2391;47.212;7.542;2022-08-03T02:23:26;24.20;70.40
4755;DHT22;2391;47.212;7.542;2022-08-03T02:25:57;24.20;70.60
4755;DHT22;2391;47.212;7.542;2022-08-03T02:28:33;24.10;70.70
4755;DHT22;2391;47.212;7.542;2022-08-03T02:31:02;24.10;70.80
4755;DHT22;2391;47.212;7.542;2022-08-03T02:33:32;24.00;70.60
4755;DHT22;2391;47.212;7.542;2022-08-03T02:36:00;24.00;70.90
4755;DHT22;2391;47.212;7.542;2022-08-03T02:38:32;24.00;71.10
4755;DHT22;2391;47.212;7.542;2022-08-03T02:41:00;23.90;70.90
4755;DHT22;2391;47.212;7.542;2022-08-03T02:43:29;23.90;70.80
4755;DHT22;2391;47.212;7.542;2022-08-03T02:45:56;23.90;70.70
4755;DHT22;2391;47.212;7.542;2022-08-03T03:06:29;23.50;70.50
4755;DHT22;2391;47.212;7.542;2022-08-03T04:11:13;22.80;72.80
4755;DHT22;2391;47.212;7.542;2022-08-03T04:13:43;22.80;73.10
4755;DHT22;2391;47.212;7.542;2022-08-03T04:16:11;22.80;73.40
4755;DHT22;2391;47.212;7.542;2022-08-03T04:18:40;22.80;73.40
4755;DHT22;2391;47.212;7.542;2022-08-03T04:21:08;22.80;73.30
4755;DHT22;2391;47.212;7.542;2022-08-03T04:23:39;22.80;73.30
4755;DHT22;2391;47.212;7.542;2022-08-03T04:26:07;22.80;73.50
4755;DHT22;2391;47.212;7.542;2022-08-03T04:28:34;22.80;73.60
4755;DHT22;2391;47.212;7.542;2022-08-03T04:31:03;22.80;73.60
4755;DHT22;2391;47.212;7.542;2022-08-03T04:33:31;22.70;73.80
4755;DHT22;2391;47.212;7.542;2022-08-03T04:35:59;22.60;73.60
4755;DHT22;2391;47.212;7.542;2022-08-03T04:38:26;22.60;74.70
4755;DHT22;2391;47.212;7.542;2022-08-03T04:40:53;22.50;75.00
4755;DHT22;2391;47.212;7.542;2022-08-03T04:43:21;22.50;75.50
4755;DHT22;2391;47.212;7.542;2022-08-03T04:45:48;22.40;76.40
4755;DHT22;2391;47.212;7.542;2022-08-03T04:48:14;22.30;76.60
4755;DHT22;2391;47.212;7.542;2022-08-03T04:50:41;22.30;76.50
4755;DHT22;2391;47.212;7.542;2022-08-03T04:53:07;22.30;77.10
4755;DHT22;2391;47.212;7.542;2022-08-03T04:55:34;22.30;77.20
4755;DHT22;2391;47.212;7.542;2022-08-03T04:58:01;22.30;77.40
4755;DHT22;2391;47.212;7.542;2022-08-03T05:00:28;22.30;77.40
4755;DHT22;2391;47.212;7.542;2022-08-03T05:02:54;22.40;77.30
4755;DHT22;2391;47.212;7.542;2022-08-03T05:05:21;22.40;77.10
4755;DHT22;2391;47.212;7.542;2022-08-03T05:07:47;22.50;77.20
4755;DHT22;2391;47.212;7.542;2022-08-03T05:10:13;22.50;77.20
4755;DHT22;2391;47.212;7.542;2022-08-03T05:12:40;22.40;77.30
4755;DHT22;2391;47.212;7.542;2022-08-03T05:15:06;22.40;77.30
4755;DHT22;2391;47.212;7.542;2022-08-03T05:17:32;22.40;77.80
4755;DHT22;2391;47.212;7.542;2022-08-03T05:19:59;22.30;77.60
4755;DHT22;2391;47.212;7.542;2022-08-03T05:22:25;22.40;78.10
4755;DHT22;2391;47.212;7.542;2022-08-03T05:24:51;22.40;77.80
4755;DHT22;2391;47.212;7.542;2022-08-03T05:27:17;22.40;78.10
4755;DHT22;2391;47.212;7.542;2022-08-03T05:29:47;22.40;78.10
4755;DHT22;2391;47.212;7.542;2022-08-03T05:32:14;22.50;78.20
4755;DHT22;2391;47.212;7.542;2022-08-03T05:34:40;22.40;78.50
4755;DHT22;2391;47.212;7.542;2022-08-03T05:37:06;22.50;78.60
4755;DHT22;2391;47.212;7.542;2022-08-03T05:39:32;22.50;78.80
4755;DHT22;2391;47.212;7.542;2022-08-03T05:41:58;22.50;78.80
4755;DHT22;2391;47.212;7.542;2022-08-03T05:44:24;22.50;78.60
4755;DHT22;2391;47.212;7.542;2022-08-03T05:46:51;22.50;78.80
4755;DHT22;2391;47.212;7.542;2022-08-03T05:49:17;22.60;78.80
4755;DHT22;2391;47.212;7.542;2022-08-03T05:51:43;22.70;78.60
4755;DHT22;2391;47.212;7.542;2022-08-03T05:54:09;22.70;78.20
4755;DHT22;2391;47.212;7.542;2022-08-03T05:56:35;22.80;77.90
4755;DHT22;2391;47.212;7.542;2022-08-03T05:59:01;22.80;77.90
4755;DHT22;2391;47.212;7.542;2022-08-03T06:01:28;22.80;79.00
4755;DHT22;2391;47.212;7.542;2022-08-03T06:03:54;22.80;78.50
4755;DHT22;2391;47.212;7.542;2022-08-03T06:06:20;22.80;78.80
4755;DHT22;2391;47.212;7.542;2022-08-03T06:08:46;22.80;78.50
4755;DHT22;2391;47.212;7.542;2022-08-03T06:11:13;22.90;78.10
4755;DHT22;2391;47.212;7.542;2022-08-03T06:13:39;22.90;78.20
4755;DHT22;2391;47.212;7.542;2022-08-03T06:16:05;23.00;78.40
4755;DHT22;2391;47.212;7.542;2022-08-03T06:18:31;23.10;79.10
4755;DHT22;2391;47.212;7.542;2022-08-03T06:20:57;23.20;79.00
4755;DHT22;2391;47.212;7.542;2022-08-03T06:23:23;23.40;78.30
4755;DHT22;2391;47.212;7.542;2022-08-03T06:25:49;23.60;77.60
4755;DHT22;2391;47.212;7.542;2022-08-03T06:28:15;23.90;77.00
4755;DHT22;2391;47.212;7.542;2022-08-03T06:30:43;24.10;75.50
4755;DHT22;2391;47.212;7.542;2022-08-03T06:33:09;24.20;74.90
4755;DHT22;2391;47.212;7.542;2022-08-03T06:35:35;24.30;75.20
4755;DHT22;2391;47.212;7.542;2022-08-03T06:38:01;24.50;74.60
4755;DHT22;2391;47.212;7.542;2022-08-03T06:40:28;24.70;74.50
4755;DHT22;2391;47.212;7.542;2022-08-03T06:42:57;25.00;74.20
4755;DHT22;2391;47.212;7.542;2022-08-03T06:45:23;25.20;74.10
4755;DHT22;2391;47.212;7.542;2022-08-03T06:48:06;25.40;72.90
4755;DHT22;2391;47.212;7.542;2022-08-03T06:50:31;25.60;72.60
4755;DHT22;2391;47.212;7.542;2022-08-03T06:52:58;25.80;71.60
4755;DHT22;2391;47.212;7.542;2022-08-03T06:55:24;26.00;71.00
4755;DHT22;2391;47.212;7.542;2022-08-03T06:57:50;26.20;70.20
4755;DHT22;2391;47.212;7.542;2022-08-03T07:00:16;26.40;70.00
4755;DHT22;2391;47.212;7.542;2022-08-03T07:02:42;26.60;68.90
4755;DHT22;2391;47.212;7.542;2022-08-03T07:05:08;26.80;68.30
4755;DHT22;2391;47.212;7.542;2022-08-03T07:07:34;26.90;68.10
4755;DHT22;2391;47.212;7.542;2022-08-03T07:10:00;27.00;68.40
4755;DHT22;2391;47.212;7.542;2022-08-03T07:12:28;27.10;68.30
4755;DHT22;2391;47.212;7.542;2022-08-03T07:14:55;27.30;68.10
4755;DHT22;2391;47.212;7.542;2022-08-03T07:17:21;27.40;67.40
4755;DHT22;2391;47.212;7.542;2022-08-03T07:19:48;27.50;67.50
4755;DHT22;2391;47.212;7.542;2022-08-03T07:22:14;27.60;65.80
4755;DHT22;2391;47.212;7.542;2022-08-03T07:24:39;27.60;64.90
4755;DHT22;2391;47.212;7.542;2022-08-03T07:27:07;27.70;65.80
4755;DHT22;2391;47.212;7.542;2022-08-03T07:29:33;27.80;66.00
4755;DHT22;2391;47.212;7.542;2022-08-03T07:31:59;27.90;65.30
4755;DHT22;2391;47.212;7.542;2022-08-03T07:34:25;28.00;64.20
4755;DHT22;2391;47.212;7.542;2022-08-03T07:36:51;28.00;63.90
4755;DHT22;2391;47.212;7.542;2022-08-03T07:39:17;28.00;63.50
4755;DHT22;2391;47.212;7.542;2022-08-03T07:41:44;28.10;62.60
4755;DHT22;2391;47.212;7.542;2022-08-03T07:44:10;28.20;61.60
4755;DHT22;2391;47.212;7.542;2022-08-03T07:46:36;28.30;61.60
4755;DHT22;2391;47.212;7.542;2022-08-03T07:49:02;28.40;62.50
4755;DHT22;2391;47.212;7.542;2022-08-03T07:51:28;28.50;62.00
4755;DHT22;2391;47.212;7.542;2022-08-03T07:53:54;28.50;62.50
4755;DHT22;2391;47.212;7.542;2022-08-03T07:56:22;28.40;63.10
4755;DHT22;2391;47.212;7.542;2022-08-03T07:58:52;28.40;62.00
4755;DHT22;2391;47.212;7.542;2022-08-03T08:01:19;28.40;62.20
4755;DHT22;2391;47.212;7.542;2022-08-03T08:03:45;28.50;62.50
4755;DHT22;2391;47.212;7.542;2022-08-03T08:06:11;28.60;62.40
4755;DHT22;2391;47.212;7.542;2022-08-03T08:08:38;28.70;60.70
4755;DHT22;2391;47.212;7.542;2022-08-03T08:11:04;28.70;60.60
4755;DHT22;2391;47.212;7.542;2022-08-03T08:13:30;28.80;60.10
4755;DHT22;2391;47.212;7.542;2022-08-03T08:15:58;28.90;60.30
4755;DHT22;2391;47.212;7.542;2022-08-03T08:18:24;29.00;60.60
4755;DHT22;2391;47.212;7.542;2022-08-03T08:20:50;29.10;59.80
4755;DHT22;2391;47.212;7.542;2022-08-03T08:23:16;29.20;58.00
4755;DHT22;2391;47.212;7.542;2022-08-03T08:25:44;29.20;59.10
4755;DHT22;2391;47.212;7.542;2022-08-03T08:28:10;29.20;59.00
4755;DHT22;2391;47.212;7.542;2022-08-03T08:30:36;29.30;60.30
4755;DHT22;2391;47.212;7.542;2022-08-03T08:33:02;29.30;59.20
4755;DHT22;2391;47.212;7.542;2022-08-03T08:35:28;29.30;60.10
4755;DHT22;2391;47.212;7.542;2022-08-03T08:37:54;29.30;59.70
4755;DHT22;2391;47.212;7.542;2022-08-03T08:40:20;29.30;60.50
4755;DHT22;2391;47.212;7.542;2022-08-03T08:42:46;29.40;59.30
4755;DHT22;2391;47.212;7.542;2022-08-03T08:45:12;29.40;59.20
4755;DHT22;2391;47.212;7.542;2022-08-03T08:47:43;29.40;59.10
4755;DHT22;2391;47.212;7.542;2022-08-03T08:50:09;29.40;58.80
4755;DHT22;2391;47.212;7.542;2022-08-03T08:52:39;29.50;58.50
4755;DHT22;2391;47.212;7.542;2022-08-03T08:55:09;29.50;58.00
4755;DHT22;2391;47.212;7.542;2022-08-03T08:57:37;29.50;57.60
4755;DHT22;2391;47.212;7.542;2022-08-03T09:00:06;29.60;58.30
4755;DHT22;2391;47.212;7.542;2022-08-03T09:02:34;29.70;57.50
4755;DHT22;2391;47.212;7.542;2022-08-03T09:05:00;29.70;57.60
4755;DHT22;2391;47.212;7.542;2022-08-03T09:07:27;29.70;57.60
4755;DHT22;2391;47.212;7.542;2022-08-03T09:09:53;29.80;58.10
4755;DHT22;2391;47.212;7.542;2022-08-03T09:12:19;29.90;58.20
4755;DHT22;2391;47.212;7.542;2022-08-03T09:14:45;30.00;57.20
4755;DHT22;2391;47.212;7.542;2022-08-03T09:17:11;30.10;58.00
4755;DHT22;2391;47.212;7.542;2022-08-03T09:19:37;30.10;57.00
4755;DHT22;2391;47.212;7.542;2022-08-03T09:22:14;30.10;57.50
4755;DHT22;2391;47.212;7.542;2022-08-03T09:24:56;30.10;56.70
4755;DHT22;2391;47.212;7.542;2022-08-03T09:27:22;30.10;57.60
4755;DHT22;2391;47.212;7.542;2022-08-03T09:29:51;30.20;56.70
4755;DHT22;2391;47.212;7.542;2022-08-03T09:32:21;30.20;57.50
4755;DHT22;2391;47.212;7.542;2022-08-03T09:34:49;30.40;57.20
4755;DHT22;2391;47.212;7.542;2022-08-03T09:37:17;30.50;57.50
4755;DHT22;2391;47.212;7.542;2022-08-03T09:39:43;30.60;57.50
4755;DHT22;2391;47.212;7.542;2022-08-03T09:42:11;30.60;57.00
4755;DHT22;2391;47.212;7.542;2022-08-03T09:44:43;30.70;56.70
4755;DHT22;2391;47.212;7.542;2022-08-03T09:47:08;30.70;57.30
4755;DHT22;2391;47.212;7.542;2022-08-03T09:49:37;30.80;56.00
4755;DHT22;2391;47.212;7.542;2022-08-03T09:52:18;30.90;55.90
4755;DHT22;2391;47.212;7.542;2022-08-03T09:54:49;31.00;56.40
4755;DHT22;2391;47.212;7.542;2022-08-03T09:57:23;31.00;56.30
4755;DHT22;2391;47.212;7.542;2022-08-03T09:59:50;31.00;55.80
4755;DHT22;2391;47.212;7.542;2022-08-03T10:02:21;31.00;56.00
4755;DHT22;2391;47.212;7.542;2022-08-03T10:04:49;31.00;56.20
4755;DHT22;2391;47.212;7.542;2022-08-03T10:07:18;31.00;55.90
4755;DHT22;2391;47.212;7.542;2022-08-03T10:09:58;31.00;56.60
4755;DHT22;2391;47.212;7.542;2022-08-03T10:12:25;31.10;55.70
4755;DHT22;2391;47.212;7.542;2022-08-03T10:14:52;31.20;55.00
4755;DHT22;2391;47.212;7.542;2022-08-03T10:17:19;31.20;54.10
4755;DHT22;2391;47.212;7.542;2022-08-03T10:19:46;31.30;54.60
4755;DHT22;2391;47.212;7.542;2022-08-03T10:22:14;31.40;54.00
4755;DHT22;2391;47.212;7.542;2022-08-03T10:27:18;31.20;52.50
4755;DHT22;2391;47.212;7.542;2022-08-03T10:29:46;31.10;53.00
4755;DHT22;2391;47.212;7.542;2022-08-03T10:32:27;31.10;54.00
4755;DHT22;2391;47.212;7.542;2022-08-03T10:34:53;31.20;53.80
4755;DHT22;2391;47.212;7.542;2022-08-03T10:37:22;31.30;54.20
4755;DHT22;2391;47.212;7.542;2022-08-03T10:39:50;31.30;53.20
4755;DHT22;2391;47.212;7.542;2022-08-03T10:42:23;31.40;52.30
4755;DHT22;2391;47.212;7.542;2022-08-03T10:45:03;31.40;52.80
4755;DHT22;2391;47.212;7.542;2022-08-03T10:47:28;31.40;53.80
4755;DHT22;2391;47.212;7.542;2022-08-03T10:49:54;31.40;54.70
4755;DHT22;2391;47.212;7.542;2022-08-03T10:52:21;31.40;54.60
4755;DHT22;2391;47.212;7.542;2022-08-03T10:54:46;31.50;54.30
4755;DHT22;2391;47.212;7.542;2022-08-03T10:57:51;31.50;53.40
4755;DHT22;2391;47.212;7.542;2022-08-03T11:00:23;31.60;53.50
4755;DHT22;2391;47.212;7.542;2022-08-03T11:03:09;31.60;53.40
4755;DHT22;2391;47.212;7.542;2022-08-03T11:05:41;31.60;53.00
4755;DHT22;2391;47.212;7.542;2022-08-03T11:08:28;31.50;52.70
4755;DHT22;2391;47.212;7.542;2022-08-03T11:11:00;31.40;53.50
4755;DHT22;2391;47.212;7.542;2022-08-03T11:13:27;31.50;53.10
4755;DHT22;2391;47.212;7.542;2022-08-03T11:15:59;31.50;53.30
4755;DHT22;2391;47.212;7.542;2022-08-03T11:18:25;31.50;53.00
4755;DHT22;2391;47.212;7.542;2022-08-03T11:20:56;31.60;53.00
4755;DHT22;2391;47.212;7.542;2022-08-03T11:23:42;31.60;51.80
4755;DHT22;2391;47.212;7.542;2022-08-03T11:26:14;31.50;53.30
4755;DHT22;2391;47.212;7.542;2022-08-03T11:28:43;31.60;53.50
4755;DHT22;2391;47.212;7.542;2022-08-03T11:34:07;31.80;53.50
4755;DHT22;2391;47.212;7.542;2022-08-03T11:39:42;32.00;52.10
4755;DHT22;2391;47.212;7.542;2022-08-03T11:44:56;32.20;53.50
4755;DHT22;2391;47.212;7.542;2022-08-03T11:47:24;32.30;52.70
4755;DHT22;2391;47.212;7.542;2022-08-03T11:49:54;32.20;51.90
4755;DHT22;2391;47.212;7.542;2022-08-03T11:52:21;32.20;52.20
4755;DHT22;2391;47.212;7.542;2022-08-03T11:54:52;32.10;51.40
4755;DHT22;2391;47.212;7.542;2022-08-03T11:57:33;32.00;51.90
4755;DHT22;2391;47.212;7.542;2022-08-03T11:59:56;32.00;53.20
4755;DHT22;2391;47.212;7.542;2022-08-03T12:02:21;32.10;52.20
4755;DHT22;2391;47.212;7.542;2022-08-03T12:04:56;32.10;52.50
4755;DHT22;2391;47.212;7.542;2022-08-03T12:07:27;32.10;52.00
4755;DHT22;2391;47.212;7.542;2022-08-03T12:10:12;32.10;52.70
4755;DHT22;2391;47.212;7.542;2022-08-03T12:12:39;32.20;52.20
4755;DHT22;2391;47.212;7.542;2022-08-03T12:15:06;32.20;52.60
4755;DHT22;2391;47.212;7.542;2022-08-03T12:17:37;32.20;53.10
4755;DHT22;2391;47.212;7.542;2022-08-03T12:20:05;32.40;52.50
4755;DHT22;2391;47.212;7.542;2022-08-03T12:22:33;32.50;52.30
4755;DHT22;2391;47.212;7.542;2022-08-03T12:24:59;32.50;52.20
4755;DHT22;2391;47.212;7.542;2022-08-03T12:27:26;32.70;51.90
4755;DHT22;2391;47.212;7.542;2022-08-03T12:29:56;32.80;51.60
4755;DHT22;2391;47.212;7.542;2022-08-03T12:32:22;32.80;50.90
4755;DHT22;2391;47.212;7.542;2022-08-03T12:34:50;32.90;50.80
4755;DHT22;2391;47.212;7.542;2022-08-03T12:37:20;32.90;50.70
4755;DHT22;2391;47.212;7.542;2022-08-03T12:39:52;32.80;51.00
4755;DHT22;2391;47.212;7.542;2022-08-03T12:42:18;32.70;50.50
4755;DHT22;2391;47.212;7.542;2022-08-03T12:44:44;32.60;50.30
4755;DHT22;2391;47.212;7.542;2022-08-03T12:47:11;32.50;50.10
4755;DHT22;2391;47.212;7.542;2022-08-03T12:49:47;32.40;50.10
4755;DHT22;2391;47.212;7.542;2022-08-03T12:52:11;32.50;49.60
4755;DHT22;2391;47.212;7.542;2022-08-03T12:54:37;32.50;49.00
4755;DHT22;2391;47.212;7.542;2022-08-03T12:57:05;32.50;49.70
4755;DHT22;2391;47.212;7.542;2022-08-03T12:59:36;32.60;50.90
4755;DHT22;2391;47.212;7.542;2022-08-03T13:02:04;32.80;50.10
4755;DHT22;2391;47.212;7.542;2022-08-03T13:04:32;32.80;50.20
4755;DHT22;2391;47.212;7.542;2022-08-03T13:07:01;32.90;49.50
4755;DHT22;2391;47.212;7.542;2022-08-03T13:09:28;32.90;50.40
4755;DHT22;2391;47.212;7.542;2022-08-03T13:12:07;32.90;50.80
4755;DHT22;2391;47.212;7.542;2022-08-03T13:14:33;33.00;49.90
4755;DHT22;2391;47.212;7.542;2022-08-03T13:16:59;33.10;50.60
4755;DHT22;2391;47.212;7.542;2022-08-03T13:19:25;33.20;49.70
4755;DHT22;2391;47.212;7.542;2022-08-03T13:21:51;33.40;49.00
4755;DHT22;2391;47.212;7.542;2022-08-03T13:24:17;33.50;48.40
4755;DHT22;2391;47.212;7.542;2022-08-03T13:26:44;33.60;48.40
4755;DHT22;2391;47.212;7.542;2022-08-03T13:29:10;33.70;48.50
4755;DHT22;2391;47.212;7.542;2022-08-03T13:31:36;33.80;48.40
4755;DHT22;2391;47.212;7.542;2022-08-03T13:34:02;33.80;48.60
4755;DHT22;2391;47.212;7.542;2022-08-03T13:36:27;33.90;48.30
4755;DHT22;2391;47.212;7.542;2022-08-03T13:38:53;33.80;48.40
4755;DHT22;2391;47.212;7.542;2022-08-03T13:41:19;33.90;48.70
4755;DHT22;2391;47.212;7.542;2022-08-03T13:43:45;33.90;47.40
4755;DHT22;2391;47.212;7.542;2022-08-03T13:46:11;33.80;48.20
4755;DHT22;2391;47.212;7.542;2022-08-03T13:48:37;33.90;49.40
4755;DHT22;2391;47.212;7.542;2022-08-03T13:51:03;34.00;49.00
4755;DHT22;2391;47.212;7.542;2022-08-03T13:53:29;34.00;48.20
4755;DHT22;2391;47.212;7.542;2022-08-03T13:55:55;34.10;48.50
4755;DHT22;2391;47.212;7.542;2022-08-03T13:58:21;34.20;48.10
4755;DHT22;2391;47.212;7.542;2022-08-03T14:00:47;34.20;48.70
4755;DHT22;2391;47.212;7.542;2022-08-03T14:03:13;34.30;48.70
4755;DHT22;2391;47.212;7.542;2022-08-03T14:05:40;34.30;48.20
4755;DHT22;2391;47.212;7.542;2022-08-03T14:08:06;34.40;48.30
4755;DHT22;2391;47.212;7.542;2022-08-03T14:10:34;34.50;48.20
4755;DHT22;2391;47.212;7.542;2022-08-03T14:13:00;34.50;47.90
4755;DHT22;2391;47.212;7.542;2022-08-03T14:15:26;34.50;47.00
4755;DHT22;2391;47.212;7.542;2022-08-03T14:17:53;34.60;46.70
4755;DHT22;2391;47.212;7.542;2022-08-03T14:20:19;34.60;47.20
4755;DHT22;2391;47.212;7.542;2022-08-03T14:22:45;34.60;46.30
4755;DHT22;2391;47.212;7.542;2022-08-03T14:25:11;34.60;46.60
4755;DHT22;2391;47.212;7.542;2022-08-03T14:27:37;34.60;46.70
4755;DHT22;2391;47.212;7.542;2022-08-03T14:30:03;34.70;46.60
4755;DHT22;2391;47.212;7.542;2022-08-03T14:32:29;34.70;46.40
4755;DHT22;2391;47.212;7.542;2022-08-03T14:34:55;34.70;46.60
4755;DHT22;2391;47.212;7.542;2022-08-03T14:37:21;34.70;45.90
4755;DHT22;2391;47.212;7.542;2022-08-03T14:39:47;34.70;46.20
4755;DHT22;2391;47.212;7.542;2022-08-03T14:42:13;34.70;46.50
4755;DHT22;2391;47.212;7.542;2022-08-03T14:44:40;34.70;46.50
4755;DHT22;2391;47.212;7.542;2022-08-03T14:47:06;34.70;47.00
4755;DHT22;2391;47.212;7.542;2022-08-03T14:49:32;34.70;47.00
4755;DHT22;2391;47.212;7.542;2022-08-03T14:51:58;34.80;47.20
4755;DHT22;2391;47.212;7.542;2022-08-03T14:54:24;34.80;47.20
4755;DHT22;2391;47.212;7.542;2022-08-03T14:56:50;34.80;46.40
4755;DHT22;2391;47.212;7.542;2022-08-03T14:59:16;34.80;46.00
4755;DHT22;2391;47.212;7.542;2022-08-03T15:01:42;34.70;45.70
4755;DHT22;2391;47.212;7.542;2022-08-03T15:04:08;34.70;46.30
4755;DHT22;2391;47.212;7.542;2022-08-03T15:06:34;34.70;46.50
4755;DHT22;2391;47.212;7.542;2022-08-03T15:09:00;34.70;46.40
4755;DHT22;2391;47.212;7.542;2022-08-03T15:11:26;34.60;46.70
4755;DHT22;2391;47.212;7.542;2022-08-03T15:13:52;34.60;46.40
4755;DHT22;2391;47.212;7.542;2022-08-03T15:16:18;34.60;47.00
4755;DHT22;2391;47.212;7.542;2022-08-03T15:18:44;34.60;46.90
4755;DHT22;2391;47.212;7.542;2022-08-03T15:21:09;34.70;46.20
4755;DHT22;2391;47.212;7.542;2022-08-03T15:23:35;34.70;46.20
4755;DHT22;2391;47.212;7.542;2022-08-03T15:26:01;34.80;46.70
4755;DHT22;2391;47.212;7.542;2022-08-03T15:28:27;34.80;46.50
4755;DHT22;2391;47.212;7.542;2022-08-03T15:30:54;34.70;46.10
4755;DHT22;2391;47.212;7.542;2022-08-03T15:33:20;34.50;46.10
4755;DHT22;2391;47.212;7.542;2022-08-03T15:35:47;34.40;46.80
4755;DHT22;2391;47.212;7.542;2022-08-03T15:38:14;34.40;46.80
4755;DHT22;2391;47.212;7.542;2022-08-03T15:40:40;34.50;47.20
4755;DHT22;2391;47.212;7.542;2022-08-03T15:43:06;34.60;46.30
4755;DHT22;2391;47.212;7.542;2022-08-03T15:45:32;34.70;46.50
4755;DHT22;2391;47.212;7.542;2022-08-03T15:47:58;34.70;46.00
4755;DHT22;2391;47.212;7.542;2022-08-03T15:50:24;34.70;46.20
4755;DHT22;2391;47.212;7.542;2022-08-03T15:52:50;34.80;46.50
4755;DHT22;2391;47.212;7.542;2022-08-03T15:55:16;34.80;46.80
4755;DHT22;2391;47.212;7.542;2022-08-03T15:57:42;34.90;46.70
4755;DHT22;2391;47.212;7.542;2022-08-03T16:00:09;34.90;46.00
4755;DHT22;2391;47.212;7.542;2022-08-03T16:02:35;34.90;45.90
4755;DHT22;2391;47.212;7.542;2022-08-03T16:05:01;34.90;46.10
4755;DHT22;2391;47.212;7.542;2022-08-03T16:07:28;34.90;46.50
4755;DHT22;2391;47.212;7.542;2022-08-03T16:10:17;35.00;47.30
4755;DHT22;2391;47.212;7.542;2022-08-03T16:12:43;35.00;45.30
4755;DHT22;2391;47.212;7.542;2022-08-03T16:15:10;34.90;45.20
4755;DHT22;2391;47.212;7.542;2022-08-03T16:17:37;34.80;45.80
4755;DHT22;2391;47.212;7.542;2022-08-03T16:20:05;34.80;45.90
4755;DHT22;2391;47.212;7.542;2022-08-03T16:22:32;34.90;46.40
4755;DHT22;2391;47.212;7.542;2022-08-03T16:24:59;34.90;46.50
4755;DHT22;2391;47.212;7.542;2022-08-03T16:27:25;34.90;46.60
4755;DHT22;2391;47.212;7.542;2022-08-03T16:29:51;34.90;47.20
4755;DHT22;2391;47.212;7.542;2022-08-03T16:32:17;34.90;46.20
4755;DHT22;2391;47.212;7.542;2022-08-03T16:34:44;34.90;45.80
4755;DHT22;2391;47.212;7.542;2022-08-03T16:37:10;34.90;45.90
4755;DHT22;2391;47.212;7.542;2022-08-03T16:39:36;34.80;45.60
4755;DHT22;2391;47.212;7.542;2022-08-03T16:42:02;34.80;45.80
4755;DHT22;2391;47.212;7.542;2022-08-03T16:44:28;34.80;45.80
4755;DHT22;2391;47.212;7.542;2022-08-03T16:46:55;34.80;45.80
4755;DHT22;2391;47.212;7.542;2022-08-03T16:49:21;34.80;46.10
4755;DHT22;2391;47.212;7.542;2022-08-03T16:51:47;34.80;46.10
4755;DHT22;2391;47.212;7.542;2022-08-03T16:54:13;34.80;46.40
4755;DHT22;2391;47.212;7.542;2022-08-03T16:56:40;34.90;46.20
4755;DHT22;2391;47.212;7.542;2022-08-03T16:59:06;34.90;46.00
4755;DHT22;2391;47.212;7.542;2022-08-03T17:01:32;34.90;46.10
4755;DHT22;2391;47.212;7.542;2022-08-03T17:03:59;34.90;46.30
4755;DHT22;2391;47.212;7.542;2022-08-03T17:06:26;34.90;46.40
4755;DHT22;2391;47.212;7.542;2022-08-03T17:08:53;34.90;46.50
4755;DHT22;2391;47.212;7.542;2022-08-03T17:11:19;35.00;46.20
4755;DHT22;2391;47.212;7.542;2022-08-03T17:13:45;35.00;46.80
4755;DHT22;2391;47.212;7.542;2022-08-03T17:16:16;35.00;46.40
4755;DHT22;2391;47.212;7.542;2022-08-03T17:18:51;35.00;46.30
4755;DHT22;2391;47.212;7.542;2022-08-03T17:21:27;35.00;46.50
4755;DHT22;2391;47.212;7.542;2022-08-03T17:23:54;35.00;47.00
4755;DHT22;2391;47.212;7.542;2022-08-03T17:26:22;35.00;46.70
4755;DHT22;2391;47.212;7.542;2022-08-03T17:28:51;34.90;46.50
4755;DHT22;2391;47.212;7.542;2022-08-03T17:31:18;34.90;46.20
4755;DHT22;2391;47.212;7.542;2022-08-03T17:33:46;34.80;46.20
4755;DHT22;2391;47.212;7.542;2022-08-03T17:36:17;34.90;46.70
4755;DHT22;2391;47.212;7.542;2022-08-03T17:38:46;34.90;46.40
4755;DHT22;2391;47.212;7.542;2022-08-03T17:41:13;34.80;46.30
4755;DHT22;2391;47.212;7.542;2022-08-03T17:43:41;34.80;46.40
4755;DHT22;2391;47.212;7.542;2022-08-03T17:46:07;34.80;46.50
4755;DHT22;2391;47.212;7.542;2022-08-03T17:48:34;34.90;46.70
4755;DHT22;2391;47.212;7.542;2022-08-03T17:51:03;34.80;46.70
4755;DHT22;2391;47.212;7.542;2022-08-03T17:53:36;34.80;46.80
4755;DHT22;2391;47.212;7.542;2022-08-03T17:56:22;34.80;46.90